sim
Sign-in with your pilot id or email,
or register
Callsign
Passwort

Schedule Details

Flight Number: OEO1524
Departure: Dusseldorf International Airport (EDDL) at 12:10
Arrival: Hannover Langenhagen Airport (EDDV) at 13:20

Weather Information
Getting current METAR information for EDDL 191250Z 35006KT 320V030 9999 FEW048TCU 23/10 Q1004 NOSIG
Getting current METAR information for EDDV 191250Z 12010KT 080V190 9999 FEW060TCU 24/08 Q1004 NOSIG

Schedule Frequency

Route Map